Time;durP1;ratioP1;P1;durP2;ratioP2;P2;SDS_P1;SDS_P2;PMS_P1;PMS_P2;Temp;Humidity;BMP_temperature;BMP_pressure;BME280_temperature;BME280_humidity;BME280_pressure;Samples;Min_cycle;Max_cycle;Signal;HPM_P1;HPM_P2
2023/11/02 00:03:32;;;;;;;4.80;3.70;;;;;;;10.47;100.00;98997.13;182734;1234;46094;-84
2023/11/02 00:07:44;;;;;;;8.60;4.60;;;;;;;10.50;100.00;98984.80;182833;1236;46304;-84
2023/11/02 00:11:59;;;;;;;5.90;4.50;;;;;;;10.39;100.00;98985.02;182899;1234;46092;-84
2023/11/02 00:16:02;;;;;;;5.20;3.80;;;;;;;10.23;100.00;98987.80;182932;1236;58482;-84
2023/11/02 00:20:07;;;;;;;6.00;4.50;;;;;;;10.11;100.00;98985.70;182855;1233;46043;-84
2023/11/02 00:24:11;;;;;;;8.10;6.40;;;;;;;10.07;100.00;98975.47;183337;1235;45947;-83
2023/11/02 00:28:13;;;;;;;11.50;6.10;;;;;;;10.08;100.00;98968.94;182768;1236;46174;-84
2023/11/02 00:32:15;;;;;;;8.90;6.10;;;;;;;10.09;100.00;98967.65;182543;1233;46055;-84
2023/11/02 00:36:16;;;;;;;9.10;4.10;;;;;;;10.06;100.00;98976.77;182623;1235;57940;-83
2023/11/02 00:40:19;;;;;;;5.90;4.30;;;;;;;10.00;100.00;98980.20;182564;1234;46078;-84
2023/11/02 00:44:23;;;;;;;3.40;3.10;;;;;;;9.99;100.00;98970.56;182556;1236;45987;-84
2023/11/02 00:48:25;;;;;;;5.40;3.30;;;;;;;9.98;100.00;98968.75;183793;1233;45963;-84
2023/11/02 00:52:27;;;;;;;6.10;3.20;;;;;;;9.95;100.00;98968.45;184913;1234;45887;-84
2023/11/02 00:56:36;;;;;;;5.40;4.00;;;;;;;9.89;100.00;98967.80;183816;1234;58013;-83
2023/11/02 01:00:53;;;;;;;3.90;2.40;;;;;;;9.83;100.00;98968.09;183007;1233;44091;-83
2023/11/02 01:04:56;;;;;;;8.00;4.20;;;;;;;9.81;100.00;98961.19;182941;1234;45992;-83
2023/11/02 01:09:22;;;;;;;3.60;3.20;;;;;;;9.80;100.00;98959.85;182614;1236;46192;-82
2023/11/02 01:13:27;;;;;;;7.00;4.40;;;;;;;9.80;100.00;98949.63;183138;1237;45957;-82
2023/11/02 01:17:33;;;;;;;4.10;3.00;;;;;;;9.79;100.00;98940.98;182926;1234;59395;-83
2023/11/02 01:21:35;;;;;;;3.90;2.70;;;;;;;9.80;100.00;98937.02;183141;1234;46014;-83
2023/11/02 01:25:43;;;;;;;3.40;2.90;;;;;;;9.87;100.00;98942.75;182164;1236;46099;-83
2023/11/02 01:29:48;;;;;;;4.80;3.10;;;;;;;9.91;100.00;98944.83;182610;1238;44999;-83
2023/11/02 01:33:54;;;;;;;2.90;2.40;;;;;;;9.91;100.00;98941.61;182856;1233;46446;-83
2023/11/02 01:37:56;;;;;;;5.40;3.70;;;;;;;9.92;100.00;98926.65;182511;1233;57952;-83
2023/11/02 01:42:19;;;;;;;6.30;3.40;;;;;;;9.90;100.00;98912.55;182392;1234;45324;-83
2023/11/02 01:46:20;;;;;;;5.60;4.00;;;;;;;9.84;100.00;98907.25;182720;1234;46115;-83
2023/11/02 01:50:46;;;;;;;6.80;3.20;;;;;;;9.81;100.00;98903.16;182598;1237;46909;-83
2023/11/02 01:55:02;;;;;;;7.00;3.60;;;;;;;9.67;100.00;98899.98;183359;1236;46127;-83
2023/11/02 01:59:18;;;;;;;5.10;3.60;;;;;;;9.56;100.00;98894.05;183896;1237;59117;-82
2023/11/02 02:03:27;;;;;;;2.50;2.20;;;;;;;9.51;100.00;98884.31;183005;1234;46102;-83
2023/11/02 02:07:36;;;;;;;6.70;2.60;;;;;;;9.49;100.00;98881.17;182711;1235;45992;-83
2023/11/02 02:11:42;;;;;;;2.80;2.20;;;;;;;9.47;100.00;98877.29;182518;1235;45947;-83
2023/11/02 02:16:02;;;;;;;5.90;2.40;;;;;;;9.47;100.00;98880.33;183229;1233;46095;-83
2023/11/02 02:20:19;;;;;;;4.50;3.60;;;;;;;9.41;100.00;98878.95;183148;1235;59218;-83
2023/11/02 02:24:29;;;;;;;5.70;3.60;;;;;;;9.35;100.00;98870.02;182569;1234;46063;-83
2023/11/02 02:28:31;;;;;;;3.90;3.00;;;;;;;9.38;100.00;98861.41;182913;1235;45993;-83
2023/11/02 02:33:06;;;;;;;5.40;3.50;;;;;;;9.37;100.00;98862.53;183218;1233;46008;-83
2023/11/02 02:37:20;;;;;;;4.10;3.00;;;;;;;9.30;100.00;98854.39;182561;1235;46091;-83
2023/11/02 02:41:25;;;;;;;4.90;2.90;;;;;;;9.32;100.00;98853.33;183084;1238;58263;-83
2023/11/02 02:45:29;;;;;;;3.20;2.80;;;;;;;9.32;100.00;98847.23;184265;1235;44341;-83
2023/11/02 02:49:38;;;;;;;4.70;3.10;;;;;;;9.26;100.00;98839.89;183889;1238;45997;-83
2023/11/02 02:53:41;;;;;;;5.50;2.80;;;;;;;9.24;100.00;98827.20;182790;1237;46090;-82
2023/11/02 02:57:48;;;;;;;3.20;2.60;;;;;;;9.27;100.00;98823.38;183526;1236;46018;-83
2023/11/02 03:01:54;;;;;;;3.20;1.90;;;;;;;9.28;100.00;98819.51;183236;1236;59101;-83
2023/11/02 03:05:58;;;;;;;3.00;2.40;;;;;;;9.28;100.00;98819.48;184344;1233;45966;-83
2023/11/02 03:10:02;;;;;;;4.00;3.10;;;;;;;9.23;100.00;98826.00;182751;1233;46116;-83
2023/11/02 03:14:05;;;;;;;3.40;2.80;;;;;;;9.20;100.00;98821.23;182573;1235;46103;-82
2023/11/02 03:18:13;;;;;;;3.80;2.50;;;;;;;9.19;100.00;98809.13;183493;1235;45945;-83
2023/11/02 03:22:21;;;;;;;6.60;3.30;;;;;;;9.22;100.00;98795.19;182777;1233;57364;-83
2023/11/02 03:26:29;;;;;;;5.80;3.80;;;;;;;9.32;100.00;98783.81;182677;1235;46216;-83
2023/11/02 03:30:44;;;;;;;7.70;3.10;;;;;;;9.38;100.00;98778.59;182742;1235;45956;-83
2023/11/02 03:35:02;;;;;;;3.10;2.60;;;;;;;9.43;100.00;98784.28;183059;1237;46557;-83
2023/11/02 03:39:19;;;;;;;3.60;2.30;;;;;;;9.46;100.00;98783.46;182569;1235;46141;-83
2023/11/02 03:43:26;;;;;;;3.90;2.10;;;;;;;9.46;100.00;98778.14;182812;1234;57412;-83
2023/11/02 03:47:39;;;;;;;5.50;2.70;;;;;;;9.47;100.00;98772.17;183090;1234;46169;-84
2023/11/02 03:52:20;;;;;;;3.60;2.40;;;;;;;9.47;100.00;98775.60;182788;1234;45983;-83
2023/11/02 03:56:50;;;;;;;5.60;2.50;;;;;;;9.44;100.00;98770.67;182877;1235;45958;-83
2023/11/02 04:01:01;;;;;;;3.60;2.10;;;;;;;9.44;100.00;98763.98;183541;1236;45998;-83
2023/11/02 04:05:19;;;;;;;3.50;2.90;;;;;;;9.41;100.00;98756.11;182577;1233;59458;-83
2023/11/02 04:09:22;;;;;;;5.90;2.90;;;;;;;9.40;100.00;98747.05;182426;1234;46094;-83
2023/11/02 04:13:42;;;;;;;3.20;2.30;;;;;;;9.41;100.00;98753.78;183799;1233;45940;-83
2023/11/02 04:17:44;;;;;;;10.80;3.10;;;;;;;9.43;100.00;98750.59;184041;1235;44536;-83
2023/11/02 04:21:46;;;;;;;7.40;2.80;;;;;;;9.43;100.00;98737.19;183772;1237;45205;-82
2023/11/02 04:25:50;;;;;;;1.90;1.60;;;;;;;9.37;100.00;98723.15;184478;1235;57456;-83
2023/11/02 04:29:52;;;;;;;4.00;3.00;;;;;;;9.31;100.00;98699.61;183120;1233;46159;-83
2023/11/02 04:33:54;;;;;;;6.70;3.10;;;;;;;9.34;100.00;98691.41;183791;1234;45867;-83
2023/11/02 04:38:07;;;;;;;5.60;4.00;;;;;;;9.36;100.00;98692.83;183474;1237;46087;-83
2023/11/02 04:42:10;;;;;;;3.20;2.90;;;;;;;9.41;100.00;98686.05;184174;1233;45992;-83
2023/11/02 04:46:12;;;;;;;6.20;3.00;;;;;;;9.52;100.00;98677.55;183097;1233;58027;-83
2023/11/02 04:50:14;;;;;;;5.00;4.00;;;;;;;9.52;100.00;98672.73;183276;1232;45995;-82
2023/11/02 04:54:24;;;;;;;9.20;4.20;;;;;;;9.53;100.00;98675.42;182651;1237;46170;-82
2023/11/02 04:58:26;;;;;;;6.90;2.90;;;;;;;9.55;100.00;98686.45;182965;1234;45969;-83
2023/11/02 05:02:28;;;;;;;11.30;4.00;;;;;;;9.57;100.00;98683.88;183557;1235;46004;-83
2023/11/02 05:06:30;;;;;;;5.80;2.60;;;;;;;9.57;100.00;98680.33;182464;1235;59414;-82
2023/11/02 05:10:32;;;;;;;3.10;2.60;;;;;;;9.61;100.00;98665.50;182536;1234;46110;-83
2023/11/02 05:14:34;;;;;;;5.20;3.50;;;;;;;9.60;100.00;98666.96;182836;1235;46273;-83
2023/11/02 05:18:36;;;;;;;7.40;4.20;;;;;;;9.56;100.00;98653.58;182552;1237;46018;-83
2023/11/02 05:22:38;;;;;;;7.80;4.50;;;;;;;9.42;100.00;98646.04;182833;1235;239620;-83
2023/11/02 05:26:40;;;;;;;3.90;2.80;;;;;;;9.33;100.00;98648.16;183429;1234;59183;-83
2023/11/02 05:30:43;;;;;;;5.40;3.20;;;;;;;9.22;100.00;98644.71;182608;1237;46196;-83
2023/11/02 05:34:44;;;;;;;4.30;2.70;;;;;;;9.26;100.00;98633.99;182720;1237;46026;-83
2023/11/02 05:38:49;;;;;;;3.70;3.10;;;;;;;9.22;100.00;98622.86;183384;1235;45989;-82
2023/11/02 05:42:51;;;;;;;6.60;4.30;;;;;;;9.26;100.00;98614.70;182870;1235;45889;-82
2023/11/02 05:46:53;;;;;;;3.70;3.10;;;;;;;9.33;100.00;98618.27;183247;1235;58385;-83
2023/11/02 05:50:55;;;;;;;3.80;3.10;;;;;;;9.42;100.00;98623.55;184096;1233;45923;-82
2023/11/02 05:54:57;;;;;;;4.90;3.70;;;;;;;9.53;100.00;98624.37;183797;1234;46088;-83
2023/11/02 05:58:59;;;;;;;7.30;4.20;;;;;;;9.55;100.00;98608.52;182546;1234;45963;-82
2023/11/02 06:03:01;;;;;;;4.30;3.80;;;;;;;9.49;100.00;98587.39;183170;1233;46087;-83
2023/11/02 06:07:04;;;;;;;5.00;3.50;;;;;;;9.44;100.00;98577.83;182986;1235;58153;-83
2023/11/02 06:11:06;;;;;;;5.80;3.80;;;;;;;9.43;100.00;98555.85;183144;1233;45940;-82
2023/11/02 06:15:09;;;;;;;4.30;3.70;;;;;;;9.39;100.00;98542.66;183030;1232;46091;-83
2023/11/02 06:19:11;;;;;;;7.80;4.60;;;;;;;9.35;100.00;98544.27;183350;1234;45934;-82
2023/11/02 06:23:13;;;;;;;4.80;3.60;;;;;;;9.30;100.00;98546.05;183043;1234;46065;-82
2023/11/02 06:27:15;;;;;;;6.00;3.80;;;;;;;9.34;100.00;98543.14;184300;1233;57752;-83
2023/11/02 06:31:17;;;;;;;10.30;4.80;;;;;;;9.39;100.00;98547.09;182775;1237;46080;-82
2023/11/02 06:35:19;;;;;;;7.50;4.40;;;;;;;9.42;100.00;98545.10;182754;1233;46036;-82
2023/11/02 06:39:23;;;;;;;6.00;4.70;;;;;;;9.44;100.00;98547.09;183260;1234;45941;-82
2023/11/02 06:43:26;;;;;;;5.50;4.10;;;;;;;9.53;100.00;98533.36;184580;1233;46062;-82
2023/11/02 06:47:28;;;;;;;4.80;4.10;;;;;;;9.65;100.00;98520.30;183519;1236;57905;-83
2023/11/02 06:51:31;;;;;;;4.70;4.00;;;;;;;9.74;100.00;98514.54;183054;1233;45961;-83
2023/11/02 06:55:34;;;;;;;8.20;5.30;;;;;;;9.80;100.00;98520.69;182556;1236;46063;-83
2023/11/02 06:59:36;;;;;;;7.70;5.50;;;;;;;9.87;100.00;98518.50;182812;1234;46722;-83
2023/11/02 07:03:38;;;;;;;5.00;4.50;;;;;;;10.00;100.00;98509.88;182548;1234;46084;-83
2023/11/02 07:07:43;;;;;;;8.00;5.00;;;;;;;10.12;100.00;98510.18;183300;1233;58109;-83
2023/11/02 07:11:45;;;;;;;6.90;4.70;;;;;;;10.29;100.00;98510.84;183163;1234;46097;-83
2023/11/02 07:15:48;;;;;;;6.30;5.60;;;;;;;10.45;100.00;98502.19;182597;1233;46084;-83
2023/11/02 07:19:50;;;;;;;12.40;5.40;;;;;;;10.63;100.00;98496.89;182727;1235;46075;-83
2023/11/02 07:23:52;;;;;;;7.10;5.70;;;;;;;10.81;100.00;98483.86;182909;1234;46050;-83
2023/11/02 07:27:55;;;;;;;6.40;5.70;;;;;;;10.97;100.00;98475.52;182831;1233;59397;-83
2023/11/02 07:31:57;;;;;;;11.00;7.90;;;;;;;11.13;100.00;98472.92;182599;1234;46105;-83
2023/11/02 07:35:59;;;;;;;6.80;6.10;;;;;;;11.25;100.00;98469.02;182642;1234;46117;-83
2023/11/02 07:40:04;;;;;;;10.70;6.90;;;;;;;11.39;100.00;98459.63;182381;1234;45951;-83
2023/11/02 07:44:06;;;;;;;8.70;6.10;;;;;;;11.52;100.00;98452.86;182576;1233;44634;-83
2023/11/02 07:48:08;;;;;;;8.30;5.70;;;;;;;11.55;100.00;98447.58;182719;1233;59438;-83
2023/11/02 07:52:10;;;;;;;6.80;6.00;;;;;;;11.76;100.00;98438.91;183114;1237;46199;-83
2023/11/02 07:56:12;;;;;;;7.30;6.50;;;;;;;11.91;100.00;98434.30;182820;1234;46090;-83
2023/11/02 08:00:15;;;;;;;6.50;5.90;;;;;;;12.15;100.00;98425.93;182742;1236;46096;-83
2023/11/02 08:04:17;;;;;;;6.50;5.90;;;;;;;12.36;100.00;98428.41;182473;1233;45941;-83
2023/11/02 08:08:20;;;;;;;5.40;4.90;;;;;;;12.54;100.00;98420.92;182610;1235;59784;-83
2023/11/02 08:12:22;;;;;;;7.80;6.70;;;;;;;12.71;100.00;98405.76;182714;1232;46081;-83
2023/11/02 08:16:24;;;;;;;9.00;5.80;;;;;;;12.86;100.00;98396.04;182697;1236;44722;-84
2023/11/02 08:20:28;;;;;;;9.50;5.80;;;;;;;12.99;100.00;98407.77;182897;1234;46001;-84
2023/11/02 08:24:30;;;;;;;6.50;5.70;;;;;;;13.19;100.00;98410.45;182601;1236;46075;-84
2023/11/02 08:28:32;;;;;;;5.80;5.20;;;;;;;13.34;100.00;98410.67;182399;1236;56888;-83
2023/11/02 08:32:36;;;;;;;9.40;5.70;;;;;;;13.51;100.00;98410.02;182597;1235;46136;-84
2023/11/02 08:36:38;;;;;;;11.10;5.90;;;;;;;13.69;100.00;98416.89;182955;1233;45967;-83
2023/11/02 08:40:41;;;;;;;6.20;5.30;;;;;;;13.75;100.00;98412.00;182446;1234;46065;-83
2023/11/02 08:44:43;;;;;;;7.80;5.80;;;;;;;13.88;100.00;98411.71;182565;1234;45973;-84
2023/11/02 08:48:49;;;;;;;7.50;6.30;;;;;;;14.04;100.00;98414.33;182540;1232;59312;-84
2023/11/02 08:52:52;;;;;;;6.60;5.80;;;;;;;14.18;100.00;98404.92;182602;1233;46110;-84
2023/11/02 08:56:54;;;;;;;8.40;6.30;;;;;;;14.27;100.00;98396.59;182922;1234;45975;-84
2023/11/02 09:00:57;;;;;;;6.90;5.90;;;;;;;14.27;99.28;98386.59;183221;1234;45964;-84
2023/11/02 09:04:59;;;;;;;5.40;4.80;;;;;;;14.26;100.00;98374.20;182965;1234;45551;-84
2023/11/02 09:09:02;;;;;;;6.80;5.10;;;;;;;14.38;100.00;98365.66;183376;1232;58650;-84
2023/11/02 09:13:05;;;;;;;7.70;5.60;;;;;;;14.55;99.89;98349.16;183012;1236;45999;-85
2023/11/02 09:17:07;;;;;;;6.20;5.50;;;;;;;14.66;99.03;98331.17;182322;1233;45699;-84
2023/11/02 09:21:10;;;;;;;6.00;4.80;;;;;;;14.82;98.98;98311.85;182541;1234;46031;-84
2023/11/02 09:25:12;;;;;;;6.90;5.50;;;;;;;15.00;98.20;98312.73;182683;1234;46231;-84
2023/11/02 09:29:16;;;;;;;7.00;5.90;;;;;;;15.05;96.59;98322.37;182465;1233;58027;-84
2023/11/02 09:33:21;;;;;;;7.40;5.90;;;;;;;15.24;96.84;98315.71;182741;1232;46078;-84
2023/11/02 09:37:23;;;;;;;11.90;4.40;;;;;;;15.41;94.23;98301.19;182568;1235;46031;-84
2023/11/02 09:41:26;;;;;;;6.50;5.80;;;;;;;15.43;91.29;98278.89;182597;1233;46016;-84
2023/11/02 09:45:30;;;;;;;5.60;4.80;;;;;;;15.45;92.52;98269.98;182581;1234;46081;-84
2023/11/02 09:49:32;;;;;;;5.50;4.00;;;;;;;15.46;90.98;98270.19;182658;1233;58807;-84
2023/11/02 09:53:35;;;;;;;4.20;3.80;;;;;;;15.48;89.89;98265.69;182861;1234;45963;-84
2023/11/02 09:57:38;;;;;;;5.90;4.40;;;;;;;15.48;90.49;98262.11;182659;1236;46064;-84
2023/11/02 10:01:41;;;;;;;6.10;5.40;;;;;;;15.55;89.82;98263.52;182846;1234;45960;-84
2023/11/02 10:05:46;;;;;;;6.20;4.40;;;;;;;15.59;92.64;98264.82;182606;1236;45966;-84
2023/11/02 10:09:49;;;;;;;6.20;3.70;;;;;;;15.65;91.42;98263.23;182754;1234;59123;-84
2023/11/02 10:13:51;;;;;;;5.70;5.20;;;;;;;15.72;91.59;98254.81;182619;1233;46084;-84
2023/11/02 10:17:53;;;;;;;7.20;4.40;;;;;;;15.83;89.98;98243.75;183529;1233;45988;-84
2023/11/02 10:21:56;;;;;;;4.10;3.70;;;;;;;15.89;87.76;98236.40;182767;1233;45985;-85
2023/11/02 10:25:58;;;;;;;3.50;3.20;;;;;;;15.90;88.08;98228.23;182637;1233;46106;-84
2023/11/02 10:30:03;;;;;;;3.10;2.80;;;;;;;15.85;88.19;98213.19;183043;1234;58115;-85
2023/11/02 10:34:07;;;;;;;3.40;3.00;;;;;;;15.86;89.40;98204.27;182669;1233;46551;-85
2023/11/02 10:38:09;;;;;;;5.20;3.90;;;;;;;15.79;88.64;98190.77;182537;1236;46055;-85
2023/11/02 10:42:14;;;;;;;4.60;4.10;;;;;;;15.68;87.47;98178.30;182900;1233;45627;-85
2023/11/02 10:46:17;;;;;;;5.00;4.50;;;;;;;15.61;87.88;98171.23;185001;1232;45950;-84
2023/11/02 10:50:21;;;;;;;4.60;4.20;;;;;;;15.52;86.49;98166.88;185415;1233;56785;-84
2023/11/02 10:54:26;;;;;;;3.30;3.00;;;;;;;15.49;86.74;98152.42;183933;1232;45962;-84
2023/11/02 10:58:30;;;;;;;8.80;4.80;;;;;;;15.50;89.37;98143.19;184083;1233;46060;-84
2023/11/02 11:02:39;;;;;;;8.60;4.90;;;;;;;15.69;90.79;98134.92;184224;1236;46791;-85
2023/11/02 11:06:43;;;;;;;7.30;6.60;;;;;;;15.82;90.50;98119.79;184126;1234;44696;-85
2023/11/02 11:10:47;;;;;;;6.80;6.00;;;;;;;15.85;88.70;98106.82;184323;1233;58761;-84
2023/11/02 11:14:50;;;;;;;6.50;5.00;;;;;;;15.81;88.44;98097.67;183939;1236;46012;-84
2023/11/02 11:18:54;;;;;;;6.90;5.90;;;;;;;15.79;91.26;98088.70;184189;1233;46077;-85
2023/11/02 11:22:56;;;;;;;8.60;6.50;;;;;;;15.85;94.69;98088.52;183836;1233;46110;-86
2023/11/02 11:27:02;;;;;;;5.20;4.70;;;;;;;15.93;91.31;98088.98;182724;1236;46055;-85
2023/11/02 11:31:05;;;;;;;5.90;5.20;;;;;;;15.99;89.53;98077.45;182359;1236;58676;-85
2023/11/02 11:35:09;;;;;;;6.80;5.90;;;;;;;15.98;87.59;98063.48;183120;1236;45862;-85
2023/11/02 11:39:52;;;;;;;10.00;6.90;;;;;;;15.93;89.43;98060.33;182731;1233;45945;-85
2023/11/02 11:44:10;;;;;;;6.70;5.60;;;;;;;15.94;89.80;98060.57;182524;1234;45967;-85
2023/11/02 11:48:32;;;;;;;9.20;6.00;;;;;;;15.87;87.02;98054.40;182646;1233;45977;-84
2023/11/02 11:52:36;;;;;;;6.30;5.70;;;;;;;15.89;87.41;98063.50;183104;1233;58435;-85
2023/11/02 11:56:40;;;;;;;7.40;6.40;;;;;;;15.83;87.18;98062.62;183032;1234;46216;-84
2023/11/02 12:00:48;;;;;;;6.50;4.80;;;;;;;15.82;87.95;98063.98;184075;1232;45934;-84
2023/11/02 12:04:56;;;;;;;5.30;4.80;;;;;;;15.79;86.97;98074.48;182982;1232;46079;-83
2023/11/02 12:09:03;;;;;;;6.00;5.40;;;;;;;15.77;88.67;98076.25;183183;1234;46051;-83
2023/11/02 12:13:06;;;;;;;6.90;5.70;;;;;;;15.73;86.69;98077.23;182743;1233;57980;-83
2023/11/02 12:17:08;;;;;;;6.10;5.50;;;;;;;15.72;87.38;98063.09;182588;1234;46248;-85
2023/11/02 12:21:14;;;;;;;5.00;4.50;;;;;;;15.63;87.31;98061.97;182831;1233;46076;-85
2023/11/02 12:25:20;;;;;;;4.70;3.60;;;;;;;15.55;87.03;98055.85;182654;1232;46061;-85
2023/11/02 12:29:24;;;;;;;7.50;5.20;;;;;;;15.49;87.11;98051.98;182807;1234;46077;-84
2023/11/02 12:33:27;;;;;;;10.00;5.00;;;;;;;15.37;86.64;98051.29;182701;1234;58074;-85
2023/11/02 12:37:29;;;;;;;6.50;3.90;;;;;;;15.37;87.15;98049.84;183166;1233;46040;-85
2023/11/02 12:41:33;;;;;;;9.60;5.10;;;;;;;15.32;86.22;98035.27;183714;1234;45998;-85
2023/11/02 12:45:36;;;;;;;7.00;4.60;;;;;;;15.36;87.76;98029.08;182292;1234;45963;-85
2023/11/02 12:49:39;;;;;;;5.50;4.00;;;;;;;15.45;87.60;98026.20;183340;1233;46011;-86
2023/11/02 12:53:43;;;;;;;5.20;4.10;;;;;;;15.54;88.93;98032.45;183471;1233;59169;-85
2023/11/02 12:57:45;;;;;;;7.20;3.30;;;;;;;15.62;87.16;98021.77;183171;1234;45996;-85
2023/11/02 13:01:57;;;;;;;3.90;3.50;;;;;;;15.57;85.97;98013.36;183751;1236;45712;-85
2023/11/02 13:06:00;;;;;;;6.10;3.20;;;;;;;15.49;86.04;98013.04;183361;1236;45967;-84
2023/11/02 13:10:04;;;;;;;4.50;2.90;;;;;;;15.38;87.18;97998.45;182913;1233;44497;-85
2023/11/02 13:14:06;;;;;;;3.60;3.10;;;;;;;15.23;88.14;97987.55;183433;1234;58245;-85
2023/11/02 13:18:11;;;;;;;4.70;2.20;;;;;;;15.14;87.82;97979.60;183538;1232;46008;-85
2023/11/02 13:22:13;;;;;;;3.30;3.00;;;;;;;15.06;87.97;97972.34;183136;1232;45981;-85
2023/11/02 13:26:17;;;;;;;2.60;2.40;;;;;;;15.00;88.06;97962.81;182857;1234;46067;-85
2023/11/02 13:30:19;;;;;;;8.00;2.60;;;;;;;14.89;88.51;97942.46;183236;1234;45957;-85
2023/11/02 13:34:22;;;;;;;3.40;2.10;;;;;;;14.81;88.82;97930.76;183097;1236;58557;-85
2023/11/02 13:38:24;;;;;;;3.80;2.70;;;;;;;14.72;89.48;97903.77;183593;1233;44863;-85
2023/11/02 13:42:27;;;;;;;5.20;2.50;;;;;;;14.71;90.59;97885.95;184040;1232;45972;-85
2023/11/02 13:46:30;;;;;;;14.00;3.80;;;;;;;14.69;92.85;97878.07;183245;1236;45906;-85
2023/11/02 13:50:33;;;;;;;8.20;4.60;;;;;;;14.64;94.14;97871.92;182654;1233;46005;-85
2023/11/02 13:54:35;;;;;;;6.50;4.00;;;;;;;14.61;94.10;97875.02;183646;1233;60346;-84
2023/11/02 13:58:38;;;;;;;3.70;2.70;;;;;;;14.53;94.74;97868.98;182802;1233;45999;-85
2023/11/02 14:02:41;;;;;;;5.90;2.60;;;;;;;14.56;93.34;97862.23;183914;1233;45892;-84
2023/11/02 14:06:48;;;;;;;2.90;1.90;;;;;;;14.59;91.99;97858.28;183529;1236;45893;-84
2023/11/02 14:10:50;;;;;;;3.00;1.90;;;;;;;14.60;92.05;97850.28;183458;1235;46133;-85
2023/11/02 14:14:52;;;;;;;6.50;2.00;;;;;;;14.62;92.13;97853.64;182826;1234;58449;-85
2023/11/02 14:18:54;;;;;;;2.60;2.20;;;;;;;14.65;92.15;97858.73;183545;1234;45955;-84
2023/11/02 14:22:56;;;;;;;2.00;1.90;;;;;;;14.68;92.58;97863.27;183307;1234;44062;-85
2023/11/02 14:26:59;;;;;;;2.90;1.90;;;;;;;14.68;92.98;97871.36;183813;1233;45950;-85
2023/11/02 14:31:04;;;;;;;4.70;1.70;;;;;;;14.69;93.12;97879.35;183416;1234;46052;-85
2023/11/02 14:35:08;;;;;;;6.00;2.70;;;;;;;14.71;92.80;97875.28;183785;1234;58878;-85
2023/11/02 14:39:10;;;;;;;5.80;2.80;;;;;;;14.72;92.56;97860.40;183239;1234;46103;-86
2023/11/02 14:43:22;;;;;;;4.10;2.70;;;;;;;14.69;92.64;97850.08;183005;1236;45009;31
2023/11/02 14:47:24;;;;;;;3.80;2.60;;;;;;;14.66;92.63;97841.27;184208;1235;45914;-87
2023/11/02 14:51:26;;;;;;;9.80;1.80;;;;;;;14.59;93.68;97843.91;183625;1236;46031;-87
2023/11/02 14:55:28;;;;;;;5.20;2.00;;;;;;;14.57;93.55;97852.98;183738;1231;58751;-85
2023/11/02 14:59:30;;;;;;;4.20;2.00;;;;;;;14.56;93.66;97863.55;183426;1231;46655;-88
2023/11/02 15:03:51;;;;;;;3.20;2.40;;;;;;;14.51;94.61;97854.84;183542;1232;45975;-85
2023/11/02 15:08:02;;;;;;;7.30;3.10;;;;;;;14.40;95.33;97842.73;184418;1231;44826;-88
2023/11/02 15:12:04;;;;;;;7.20;4.80;;;;;;;14.36;95.47;97837.20;183699;1232;46039;-89
2023/11/02 15:16:12;;;;;;;6.40;4.30;;;;;;;14.37;96.13;97840.61;184561;1233;90762;-62
2023/11/02 15:20:17;;;;;;;5.50;4.30;;;;;;;14.37;96.63;97845.25;186310;1232;92658;-61
2023/11/02 15:24:22;;;;;;;8.40;4.50;;;;;;;14.36;96.54;97834.36;186019;1231;43594;-62
2023/11/02 15:28:34;;;;;;;6.00;2.00;;;;;;;14.32;97.44;97825.89;185628;1231;43630;-61
2023/11/02 15:32:40;;;;;;;3.40;2.50;;;;;;;14.16;98.46;97804.63;186025;1231;45286;-61
2023/11/02 15:36:45;;;;;;;7.60;2.80;;;;;;;14.22;98.07;97802.48;186010;1231;57214;-62
2023/11/02 15:40:54;;;;;;;6.20;5.20;;;;;;;14.28;97.03;97786.21;185925;1231;43492;-63
2023/11/02 15:44:58;;;;;;;21.10;12.50;;;;;;;14.26;97.14;97787.11;185885;1231;44878;-62
2023/11/02 15:49:40;;;;;;;9.60;4.70;;;;;;;14.30;96.23;97783.20;186061;1231;45699;-62
2023/11/02 15:53:46;;;;;;;3.50;3.00;;;;;;;14.35;96.68;97772.86;185692;1231;43736;-62
2023/11/02 15:57:53;;;;;;;5.30;3.10;;;;;;;14.32;96.17;97766.11;185840;1232;58680;-61
2023/11/02 16:01:57;;;;;;;6.90;3.90;;;;;;;14.23;95.22;97749.95;185933;1231;43747;-62
2023/11/02 16:06:14;;;;;;;8.70;6.50;;;;;;;14.16;95.28;97740.47;185940;1231;43481;-61
2023/11/02 16:10:16;;;;;;;5.40;4.40;;;;;;;14.07;95.62;97735.06;185900;1231;44069;-62
2023/11/02 16:14:18;;;;;;;4.60;3.50;;;;;;;14.03;96.27;97731.05;185996;1231;45947;-62
2023/11/02 16:18:20;;;;;;;6.20;4.00;;;;;;;13.99;96.62;97722.45;186186;1231;57828;-62
2023/11/02 16:22:24;;;;;;;10.20;6.60;;;;;;;13.95;97.27;97719.29;186222;1231;43748;-62
2023/11/02 16:26:26;;;;;;;6.10;4.70;;;;;;;13.98;97.22;97716.08;185840;1231;44725;-62
2023/11/02 16:30:51;;;;;;;5.50;5.00;;;;;;;14.02;97.10;97711.00;186026;1231;44509;-62
2023/11/02 16:34:53;;;;;;;7.10;3.00;;;;;;;13.99;97.49;97703.04;185970;1231;45866;-61
2023/11/02 16:39:19;;;;;;;3.80;2.30;;;;;;;14.00;97.41;97698.02;185895;1231;58511;-62
2023/11/02 16:43:22;;;;;;;14.90;6.90;;;;;;;14.08;96.21;97708.97;185735;1231;44680;-61
2023/11/02 16:47:24;;;;;;;4.90;3.80;;;;;;;14.13;95.66;97712.06;186084;1231;43764;-62
2023/11/02 16:51:28;;;;;;;6.10;4.00;;;;;;;14.09;96.00;97718.13;186133;1231;44943;-62
2023/11/02 16:55:30;;;;;;;9.80;3.80;;;;;;;13.99;96.16;97712.27;185951;1231;43468;-61
2023/11/02 16:59:40;;;;;;;5.00;3.90;;;;;;;13.86;96.84;97705.17;186065;1231;57146;-61
2023/11/02 17:03:42;;;;;;;7.80;3.80;;;;;;;13.70;97.57;97698.96;186010;1231;44827;-62
2023/11/02 17:07:48;;;;;;;6.70;5.10;;;;;;;13.62;98.14;97697.48;185928;1231;43771;-62
2023/11/02 17:11:51;;;;;;;5.70;3.30;;;;;;;13.53;98.88;97688.45;186027;1231;43573;-62
2023/11/02 17:15:54;;;;;;;8.40;4.90;;;;;;;13.44;99.75;97678.69;185742;1231;45886;-62
2023/11/02 17:19:59;;;;;;;8.10;4.30;;;;;;;13.26;100.00;97672.77;185829;1231;58441;-61
2023/11/02 17:24:00;;;;;;;5.80;5.10;;;;;;;12.99;100.00;97666.40;185637;1231;328037;-62
2023/11/02 17:28:54;;;;;;;8.90;5.00;;;;;;;12.94;100.00;97663.36;185750;1231;45972;-62
2023/11/02 17:32:56;;;;;;;13.30;5.30;;;;;;;12.97;100.00;97663.71;186001;1231;43775;-62
2023/11/02 17:36:58;;;;;;;5.70;4.30;;;;;;;13.06;100.00;97664.50;186005;1231;45883;-62
2023/11/02 17:41:05;;;;;;;14.40;5.80;;;;;;;13.06;100.00;97664.34;186309;1231;58299;-61
2023/11/02 17:45:12;;;;;;;4.20;3.80;;;;;;;13.13;100.00;97663.02;185915;1231;45349;-62
2023/11/02 17:49:36;;;;;;;11.80;5.50;;;;;;;13.18;100.00;97662.73;186077;1231;43553;-62
2023/11/02 17:54:29;;;;;;;11.30;6.70;;;;;;;13.09;100.00;97661.21;185387;1235;45246;-61
2023/11/02 17:58:35;;;;;;;19.80;13.10;;;;;;;13.07;100.00;97659.29;185164;1235;43491;-63
2023/11/02 18:02:37;;;;;;;15.30;10.40;;;;;;;13.06;100.00;97657.48;185362;1235;58317;-62
2023/11/02 18:06:52;;;;;;;14.40;8.40;;;;;;;13.05;100.00;97660.19;185295;1235;44037;-62
2023/11/02 18:10:54;;;;;;;9.70;7.00;;;;;;;12.96;100.00;97660.45;185108;1236;43721;-62
2023/11/02 18:14:57;;;;;;;8.20;6.50;;;;;;;13.02;100.00;97661.78;185130;1235;43561;-67
2023/11/02 18:19:00;;;;;;;11.60;6.50;;;;;;;13.02;100.00;97663.82;184970;1235;45992;-67
2023/11/02 18:23:02;;;;;;;10.30;6.60;;;;;;;13.00;100.00;97665.09;184976;1235;59200;-67
2023/11/02 18:27:04;;;;;;;15.90;8.50;;;;;;;12.97;100.00;97663.20;184923;1235;46067;-67
2023/11/02 18:31:06;;;;;;;24.20;16.40;;;;;;;13.00;100.00;97662.90;185086;1235;43452;-66
2023/11/02 18:35:12;;;;;;;26.50;19.80;;;;;;;13.14;100.00;97668.95;185019;1235;45919;-66
2023/11/02 18:39:14;;;;;;;19.60;17.30;;;;;;;13.24;100.00;97676.23;185735;1231;45172;-66
2023/11/02 18:43:16;;;;;;;22.60;13.70;;;;;;;13.35;100.00;97668.54;185507;1231;58467;-67
2023/11/02 18:47:20;;;;;;;11.10;7.00;;;;;;;13.44;100.00;97662.01;185763;1231;43555;-66
2023/11/02 18:51:22;;;;;;;7.70;4.80;;;;;;;13.54;100.00;97663.88;185537;1231;45917;-67
2023/11/02 18:55:26;;;;;;;5.80;4.70;;;;;;;13.64;100.00;97668.45;185449;1231;45947;-67
2023/11/02 18:59:32;;;;;;;9.10;5.30;;;;;;;13.71;100.00;97672.49;185532;1231;45977;-66